Cedar Bluff, VA (24609)

4:11 AM EDT on August 01, 2014 (GMT -0400)
Tazewell County (KJFZ) Elev 2651 ft | 37.06 °N, 81.80 °W | Change Station

Current weather conditions updated 36 minutes ago

Mostly Cloudy
Mostly Cloudy
68 °F
Feels Like 68 °F
N
0
Wind Variable Wind from North

Today is forecast to be Cooler than yesterday. Scattered thunderstorms possible.

Today
High -- | Low -- °F
--% Chance of Precip.
Yesterday
High -- | Low -- °F
Precip. -- in
6:32 AM 8:34 PM
Waxing Crescent, 24% visible
Pressure 30.17 in
Visibility 10.0 miles
Clouds Scattered Clouds 6500 ft
Mostly Cloudy 10000 ft
Dew Point 58 °F
Humidity 70%
Rainfall 0.00 in
Snow Depth Not available.
UV 0 out of 12
Pollen 5.10 out of 12
Air Quality Not available.
Flu Activity Not available.
METAR KJFZ 010735Z AUTO 00000KT 10SM SCT065 BKN100 20/14 A3017 RMK AO2 T01990142

More Conditions Fewer Conditions

Pressure 30.17 in
Visibility 10.0 miles
Clouds Scattered Clouds 6500 ft
Mostly Cloudy 10000 ft
Dew Point 58 °F
Humidity 70%
Rainfall 0.00 in
Snow Depth Not available.
UV 0 out of 12
Pollen 5.10 out of 12
Air Quality Not available.
Flu Activity Not available.
METAR KJFZ 010735Z AUTO 00000KT 10SM SCT065 BKN100 20/14 A3017 RMK AO2 T01990142

More Conditions Fewer Conditions

10-Day Weather Forecast

Almanac

Astronomy

Aug. 01, 2014 Rise Set
Actual Time 6:32 AM EDT 8:34 PM EDT
Civil Twilight 6:03 AM EDT 9:02 PM EDT
Nautical Twilight 5:28 AM EDT 9:37 PM EDT
Astronomical Twilight 4:50 AM EDT 10:15 PM EDT
Moon 11:46 AM EDT 11:27 PM EDT
Length of Visible Light 14h 59m
Length of Day
14h 02m
Tomorrow will be 1m 47s shorter.
Waxing Crescent, 24% of the Moon is Illuminated
Today
Waxing Crescent
Aug 3
First Quarter
Aug 10
Full
Aug 17
Last Quarter
Aug 25
New

Today's Extremes

State Highs State Lows

Community

WunderPhotos

Upload Photos

1,739,522 photos uploaded!

Nearby

Snow Depth

Station Depth Elevation
No new snow has been reported.

Earthquake Activity

City Distance Mag. Time & Date
No recent earthquake activity has been reported nearby.
Minimum magnitude displayed is 2.5.

Coastal Water Temperatures

Place Temperature
No Stations Reporting

Nearby Weather Stations

Station Location Temp. Dew Point Humidity Wind Precip. Elev Updated Type
Poor Valley, Saltville, VA 61.3 °F 27 °F 27% SE  at  0.0 mph 0.00 in / hr 1850 ft 4:10 AM EDT Normal
Glade Spring, VA 61.6 °F 60 °F 95% SSW  at  0.0 mph 0.00 in / hr 2140 ft 4:10 AM EDT Normal
Smyth Weather, Marion, VA 63.8 °F 60 °F 86% NNE  at  1.2 mph 0.00 in / hr 2157 ft 4:10 AM EDT Rapid Fire
Mt. Carmel, Marion, VA 63.3 °F 61 °F 91% ESE  at  0.0 mph - / hr 2256 ft 3:56 AM EDT Normal
White's Mill, Abingdon, VA 61.5 °F 61 °F 98% NE  at  2.0 mph 0.00 in / hr 2113 ft 4:10 AM EDT Normal
Friendship, Glade Spring, VA 61.6 °F 60 °F 96% SE  at  0.0 mph 0.00 in / hr 2015 ft 4:11 AM EDT Rapid Fire
My Side Of The Mountain, Lebanon, VA 61.1 °F 59 °F 93% ESE  at  0.0 mph 0.00 in / hr 2480 ft 4:11 AM EDT Rapid Fire

Show More Stations Show Fewer Stations